createdAt,value
2023-02-12T00:01:08.725Z,62.43
2023-02-12T00:03:35.913Z,71.97
2023-02-12T00:06:02.415Z,72.97
2023-02-12T00:08:28.819Z,63.63
2023-02-12T00:10:55.214Z,62.67
2023-02-12T00:13:21.621Z,54.83
2023-02-12T00:15:47.977Z,60.27
2023-02-12T00:18:14.350Z,61.73
2023-02-12T00:20:40.768Z,56.20
2023-02-12T00:23:07.543Z,49.60
2023-02-12T00:25:34.499Z,58.13
2023-02-12T00:28:00.880Z,58.83
2023-02-12T00:30:27.274Z,51.10
2023-02-12T00:32:54.987Z,58.33
2023-02-12T00:35:21.325Z,51.30
2023-02-12T00:37:49.727Z,55.57
2023-02-12T00:40:16.198Z,52.97
2023-02-12T00:42:42.773Z,54.83
2023-02-12T00:45:11.292Z,69.30
2023-02-12T00:47:37.622Z,61.53
2023-02-12T00:50:04.103Z,54.03
2023-02-12T00:52:30.478Z,56.53
2023-02-12T00:54:56.856Z,56.77
2023-02-12T00:57:23.186Z,56.67
2023-02-12T00:59:49.545Z,56.70
2023-02-12T01:02:18.015Z,62.30
2023-02-12T01:04:44.724Z,59.53
2023-02-12T01:07:11.280Z,56.87
2023-02-12T01:09:37.718Z,54.53
2023-02-12T01:12:04.450Z,56.00
2023-02-12T01:14:30.855Z,47.97
2023-02-12T01:16:58.201Z,61.33
2023-02-12T01:19:24.760Z,60.13
2023-02-12T01:21:51.074Z,65.43
2023-02-12T01:24:17.443Z,56.40
2023-02-12T01:26:43.807Z,60.00
2023-02-12T01:29:10.268Z,63.27
2023-02-12T01:31:39.341Z,64.33
2023-02-12T01:34:07.430Z,64.93
2023-02-12T01:36:34.703Z,55.03
2023-02-12T01:39:02.855Z,57.97
2023-02-12T01:41:36.398Z,62.70
2023-02-12T01:44:10.633Z,58.93
2023-02-12T01:46:37.146Z,61.53
2023-02-12T01:49:07.108Z,53.10
2023-02-12T01:51:34.826Z,53.07
2023-02-12T01:54:05.200Z,61.17
2023-02-12T01:56:32.672Z,60.13
2023-02-12T01:58:59.160Z,57.17
2023-02-12T02:01:28.690Z,61.20
2023-02-12T02:03:59.823Z,64.40
2023-02-12T02:06:31.945Z,56.30
2023-02-12T02:09:01.076Z,56.47
2023-02-12T02:11:45.718Z,56.17
2023-02-12T02:14:31.094Z,56.63
2023-02-12T02:17:17.484Z,58.00
2023-02-12T02:20:02.450Z,61.70
2023-02-12T02:22:53.530Z,60.00
2023-02-12T02:25:45.011Z,65.83
2023-02-12T02:28:39.184Z,56.60
2023-02-12T02:31:11.685Z,70.93
2023-02-12T02:34:05.764Z,65.03
2023-02-12T02:36:59.253Z,64.60
2023-02-12T02:39:41.750Z,78.30
2023-02-12T02:42:16.195Z,63.03
2023-02-12T02:45:05.710Z,61.00
2023-02-12T02:47:37.949Z,67.93
2023-02-12T02:50:09.316Z,59.87
2023-02-12T02:52:41.938Z,53.00
2023-02-12T02:55:12.796Z,54.23
2023-02-12T02:57:48.860Z,52.27
2023-02-12T03:00:27.286Z,46.83
2023-02-12T03:03:01.819Z,49.47
2023-02-12T03:05:35.163Z,65.63
2023-02-12T03:08:34.159Z,54.67
2023-02-12T03:11:11.896Z,58.93
2023-02-12T03:13:51.199Z,55.30
2023-02-12T03:16:25.823Z,59.17
2023-02-12T03:18:58.711Z,63.97
2023-02-12T03:21:33.074Z,57.93
2023-02-12T03:24:11.889Z,59.57
2023-02-12T03:26:46.133Z,58.63
2023-02-12T03:29:13.097Z,66.90
2023-02-12T03:31:51.331Z,67.97
2023-02-12T03:34:45.486Z,68.93
2023-02-12T03:37:37.082Z,62.13
2023-02-12T03:40:20.471Z,60.70
2023-02-12T03:43:12.686Z,55.43
2023-02-12T03:45:49.004Z,54.27
2023-02-12T03:48:33.621Z,62.33
2023-02-12T03:51:10.909Z,58.57
2023-02-12T03:53:37.386Z,58.60
2023-02-12T03:56:12.396Z,59.43
2023-02-12T03:58:41.759Z,51.43
2023-02-12T04:01:08.800Z,57.67
2023-02-12T04:03:35.311Z,68.73
2023-02-12T04:06:01.652Z,60.03
2023-02-12T04:08:28.478Z,60.00
2023-02-12T04:11:17.039Z,64.83
2023-02-12T04:13:57.758Z,60.37
2023-02-12T04:16:37.818Z,65.30
2023-02-12T04:19:04.998Z,61.23
2023-02-12T04:21:52.048Z,61.27
2023-02-12T04:24:36.528Z,65.43
2023-02-12T04:27:18.867Z,77.63
2023-02-12T04:29:54.594Z,69.63
2023-02-12T04:32:31.465Z,66.53
2023-02-12T04:35:05.966Z,64.40
2023-02-12T04:37:45.881Z,71.27
2023-02-12T04:40:14.848Z,66.40
2023-02-12T04:42:43.628Z,70.80
2023-02-12T04:45:16.485Z,71.67
2023-02-12T04:47:42.935Z,69.77
2023-02-12T04:50:09.745Z,63.03
2023-02-12T04:52:36.083Z,74.23
2023-02-12T04:55:02.543Z,67.30
2023-02-12T04:57:28.999Z,77.70
2023-02-12T04:59:55.430Z,72.03
2023-02-12T05:02:22.037Z,68.90
2023-02-12T05:04:51.300Z,75.20
2023-02-12T05:07:17.817Z,69.23
2023-02-12T05:09:44.155Z,72.27
2023-02-12T05:12:10.570Z,71.13
2023-02-12T05:14:37.044Z,74.83
2023-02-12T05:17:03.491Z,72.20
2023-02-12T05:19:29.907Z,69.13
2023-02-12T05:21:56.283Z,66.57
2023-02-12T05:24:22.615Z,73.40
2023-02-12T05:26:50.994Z,73.50
2023-02-12T05:29:18.054Z,70.30
2023-02-12T05:31:44.884Z,73.43
2023-02-12T05:34:12.632Z,80.77
2023-02-12T05:36:39.877Z,75.53
2023-02-12T05:39:07.239Z,78.30
2023-02-12T05:41:36.444Z,72.67
2023-02-12T05:44:04.129Z,80.40
2023-02-12T05:46:31.293Z,72.60
2023-02-12T05:48:57.826Z,70.87
2023-02-12T05:51:26.080Z,75.97
2023-02-12T05:53:58.692Z,74.00
2023-02-12T05:56:27.898Z,79.17
2023-02-12T05:59:06.999Z,81.57
2023-02-12T06:01:39.318Z,93.10
2023-02-12T06:04:07.953Z,93.27
2023-02-12T06:06:34.742Z,78.40
2023-02-12T06:09:01.340Z,81.80
2023-02-12T06:11:28.020Z,83.13
2023-02-12T06:13:54.387Z,96.53
2023-02-12T06:16:23.790Z,84.07
2023-02-12T06:18:51.089Z,91.20
2023-02-12T06:21:20.059Z,75.83
2023-02-12T06:23:46.943Z,75.57
2023-02-12T06:26:13.374Z,78.80
2023-02-12T06:28:39.840Z,78.50
2023-02-12T06:31:25.786Z,83.37
2023-02-12T06:33:52.961Z,65.10
2023-02-12T06:36:19.680Z,71.83
2023-02-12T06:38:46.481Z,66.03
2023-02-12T06:41:12.901Z,70.73
2023-02-12T06:43:39.455Z,69.20
2023-02-12T06:46:07.042Z,65.53
2023-02-12T06:48:33.938Z,73.10
2023-02-12T06:51:11.690Z,67.13
2023-02-12T06:53:38.101Z,70.60
2023-02-12T06:56:06.482Z,77.77
2023-02-12T06:58:32.930Z,67.03
2023-02-12T07:01:12.190Z,71.87
2023-02-12T07:03:40.531Z,75.53
2023-02-12T07:06:07.085Z,73.47
2023-02-12T07:08:33.403Z,74.60
2023-02-12T07:10:59.745Z,79.20
2023-02-12T07:13:26.071Z,76.27
2023-02-12T07:15:52.451Z,81.13
2023-02-12T07:18:18.832Z,68.00
2023-02-12T07:20:45.242Z,81.80
2023-02-12T07:23:12.407Z,68.90
2023-02-12T07:25:38.870Z,69.70
2023-02-12T07:28:05.305Z,67.10
2023-02-12T07:30:31.790Z,78.10
2023-02-12T07:32:58.140Z,68.77
2023-02-12T07:35:24.450Z,79.17
2023-02-12T07:37:50.773Z,79.53
2023-02-12T07:40:17.297Z,80.83
2023-02-12T07:42:43.600Z,72.87
2023-02-12T07:45:10.620Z,75.93
2023-02-12T07:47:38.413Z,77.40
2023-02-12T07:50:07.122Z,70.43
2023-02-12T07:52:33.449Z,77.87
2023-02-12T07:54:59.788Z,85.27
2023-02-12T07:57:26.128Z,89.50
2023-02-12T07:59:52.738Z,89.20
2023-02-12T08:02:19.167Z,80.93
2023-02-12T08:04:45.552Z,86.93
2023-02-12T08:07:11.976Z,85.43
2023-02-12T08:09:38.347Z,88.13
2023-02-12T08:12:04.931Z,87.60
2023-02-12T08:14:31.419Z,85.57
2023-02-12T08:16:57.818Z,83.67
2023-02-12T08:19:26.642Z,79.57
2023-02-12T08:21:54.726Z,97.40
2023-02-12T08:24:23.787Z,93.47
2023-02-12T08:26:50.623Z,82.23
2023-02-12T08:29:27.163Z,82.13
2023-02-12T08:31:59.687Z,83.77
2023-02-12T08:34:34.795Z,83.60
2023-02-12T08:37:01.873Z,79.43
2023-02-12T08:39:29.742Z,78.97
2023-02-12T08:41:57.911Z,75.20
2023-02-12T08:44:24.312Z,81.00
2023-02-12T08:46:52.403Z,81.33
2023-02-12T08:49:22.188Z,69.93
2023-02-12T08:51:51.617Z,72.37
2023-02-12T08:54:20.603Z,74.00
2023-02-12T08:56:47.163Z,74.97
2023-02-12T08:59:14.841Z,74.67
2023-02-12T09:01:42.218Z,76.73
2023-02-12T09:04:14.999Z,77.63
2023-02-12T09:06:41.432Z,62.00
2023-02-12T09:09:07.894Z,71.97
2023-02-12T09:11:34.428Z,69.50
2023-02-12T09:14:03.538Z,71.03
2023-02-12T09:16:32.331Z,69.70
2023-02-12T09:18:58.841Z,60.73
2023-02-12T09:21:25.329Z,63.03
2023-02-12T09:23:51.918Z,56.97
2023-02-12T09:26:21.296Z,67.07
2023-02-12T09:28:49.739Z,61.17
2023-02-12T09:31:20.712Z,61.43
2023-02-12T09:33:50.521Z,62.37
2023-02-12T09:36:18.146Z,58.40
2023-02-12T09:38:44.601Z,58.93
2023-02-12T09:41:34.699Z,57.30
2023-02-12T09:44:27.577Z,58.33
2023-02-12T09:47:06.749Z,54.33
2023-02-12T09:49:49.893Z,56.87
2023-02-12T09:52:20.383Z,44.40
2023-02-12T09:54:49.589Z,51.63
2023-02-12T09:57:37.586Z,47.10
2023-02-12T10:00:15.331Z,48.30
2023-02-12T10:02:42.075Z,48.27
2023-02-12T10:05:42.740Z,44.13
2023-02-12T10:08:31.784Z,36.43
2023-02-12T10:11:35.106Z,37.87
2023-02-12T10:14:20.135Z,34.90
2023-02-12T10:17:15.644Z,32.80
2023-02-12T10:20:03.975Z,42.73
2023-02-12T10:22:57.144Z,34.33
2023-02-12T10:25:34.157Z,28.63
2023-02-12T10:28:08.881Z,25.20
2023-02-12T10:30:42.812Z,30.50
2023-02-12T10:33:29.387Z,32.83
2023-02-12T10:36:03.095Z,23.50
2023-02-12T10:38:36.315Z,27.90
2023-02-12T10:41:02.740Z,30.37
2023-02-12T10:43:29.783Z,28.87
2023-02-12T10:45:57.237Z,28.60
2023-02-12T10:48:38.687Z,27.37
2023-02-12T10:51:07.954Z,34.37
2023-02-12T10:53:37.783Z,34.07
2023-02-12T10:56:13.236Z,31.73
2023-02-12T10:58:42.516Z,33.13
2023-02-12T11:01:16.844Z,31.50
2023-02-12T11:03:43.203Z,32.43
2023-02-12T11:06:16.319Z,38.33
2023-02-12T11:08:43.794Z,41.50
2023-02-12T11:11:22.975Z,35.30
2023-02-12T11:14:02.538Z,35.80
2023-02-12T11:16:34.033Z,36.60
2023-02-12T11:19:22.227Z,39.67
2023-02-12T11:21:49.796Z,29.67
2023-02-12T11:24:34.377Z,34.67
2023-02-12T11:27:15.595Z,31.00
2023-02-12T11:29:44.356Z,37.17
2023-02-12T11:32:19.543Z,37.17
2023-02-12T11:35:06.850Z,31.60
2023-02-12T11:37:36.414Z,34.80
2023-02-12T11:40:03.514Z,41.47
2023-02-12T11:42:34.757Z,38.97
2023-02-12T11:45:02.187Z,33.70
2023-02-12T11:47:31.916Z,34.57
2023-02-12T11:50:15.915Z,33.23
2023-02-12T11:52:42.769Z,32.67
2023-02-12T11:55:27.514Z,30.27
2023-02-12T11:58:13.430Z,38.37
2023-02-12T12:00:48.951Z,32.50
2023-02-12T12:03:21.604Z,31.20
2023-02-12T12:05:54.579Z,33.73
2023-02-12T12:08:29.388Z,35.97
2023-02-12T12:11:09.360Z,29.77
2023-02-12T12:13:44.423Z,31.80
2023-02-12T12:16:34.415Z,39.13
2023-02-12T12:19:52.295Z,29.47
2023-02-12T12:22:41.186Z,37.20
2023-02-12T12:25:20.778Z,35.37
2023-02-12T12:28:07.984Z,30.47
2023-02-12T12:31:02.464Z,28.63
2023-02-12T12:33:47.747Z,33.60
2023-02-12T12:36:14.081Z,34.60
2023-02-12T12:38:55.165Z,32.20
2023-02-12T12:41:47.860Z,29.50
2023-02-12T12:44:38.788Z,31.30
2023-02-12T12:47:17.643Z,34.53
2023-02-12T12:50:14.993Z,43.77
2023-02-12T12:52:57.494Z,34.43
2023-02-12T12:56:01.410Z,34.07
2023-02-12T12:58:44.681Z,41.80
2023-02-12T13:01:35.052Z,34.73
2023-02-12T13:04:32.291Z,29.53
2023-02-12T13:07:13.226Z,29.50
2023-02-12T13:09:48.436Z,36.30
2023-02-12T13:12:23.915Z,34.40
2023-02-12T13:15:01.297Z,36.63
2023-02-12T13:17:45.871Z,40.33
2023-02-12T13:20:45.117Z,30.43
2023-02-12T13:23:23.545Z,29.20
2023-02-12T13:26:07.543Z,35.00
2023-02-12T13:28:38.316Z,38.10
2023-02-12T13:31:30.038Z,32.70
2023-02-12T13:33:59.757Z,39.10
2023-02-12T13:36:26.143Z,37.80
2023-02-12T13:39:01.526Z,39.20
2023-02-12T13:41:28.579Z,32.40
2023-02-12T13:44:01.635Z,34.97
2023-02-12T13:46:40.013Z,35.00
2023-02-12T13:49:24.653Z,33.93
2023-02-12T13:52:13.746Z,37.03
2023-02-12T13:54:55.617Z,32.77
2023-02-12T13:57:22.019Z,34.20
2023-02-12T13:59:54.056Z,30.57
2023-02-12T14:02:37.048Z,29.87
2023-02-12T14:05:18.662Z,34.03
2023-02-12T14:07:55.319Z,34.90
2023-02-12T14:10:34.838Z,39.33
2023-02-12T14:13:15.795Z,27.57
2023-02-12T14:15:45.316Z,33.40
2023-02-12T14:18:28.880Z,31.27
2023-02-12T14:21:13.398Z,32.37
2023-02-12T14:23:45.843Z,34.10
2023-02-12T14:26:17.923Z,34.10
2023-02-12T14:28:58.588Z,31.70
2023-02-12T14:31:32.852Z,36.30
2023-02-12T14:34:05.410Z,31.13
2023-02-12T14:36:41.335Z,30.33
2023-02-12T14:39:19.727Z,32.17
2023-02-12T14:41:47.442Z,30.07
2023-02-12T14:44:16.849Z,31.27
2023-02-12T14:46:55.058Z,31.43
2023-02-12T14:49:42.574Z,29.90
2023-02-12T14:52:17.767Z,30.90
2023-02-12T14:54:57.436Z,30.30
2023-02-12T14:57:40.458Z,36.73
2023-02-12T15:00:34.391Z,33.93
2023-02-12T15:03:12.782Z,38.47
2023-02-12T15:05:48.146Z,32.40
2023-02-12T15:08:34.508Z,38.53
2023-02-12T15:11:19.379Z,39.23
2023-02-12T15:13:54.745Z,34.43
2023-02-12T15:16:24.060Z,36.83
2023-02-12T15:18:50.383Z,40.07
2023-02-12T15:21:22.822Z,36.03
2023-02-12T15:24:06.348Z,36.27
2023-02-12T15:26:45.053Z,30.90
2023-02-12T15:29:20.850Z,36.10
2023-02-12T15:31:52.784Z,35.03
2023-02-12T15:34:22.191Z,33.30
2023-02-12T15:36:48.854Z,36.07
2023-02-12T15:39:20.626Z,34.17
2023-02-12T15:41:47.938Z,39.80
2023-02-12T15:44:24.584Z,42.33
2023-02-12T15:47:11.610Z,41.47
2023-02-12T15:49:39.614Z,43.60
2023-02-12T15:52:17.432Z,33.20
2023-02-12T15:54:45.847Z,36.20
2023-02-12T15:57:19.300Z,38.83
2023-02-12T15:59:51.381Z,37.17
2023-02-12T16:02:21.531Z,37.10
2023-02-12T16:04:48.600Z,37.23
2023-02-12T16:07:15.795Z,39.60
2023-02-12T16:09:43.251Z,48.10
2023-02-12T16:12:14.338Z,38.90
2023-02-12T16:14:47.832Z,39.73
2023-02-12T16:17:19.980Z,33.97
2023-02-12T16:19:57.200Z,46.93
2023-02-12T16:22:38.004Z,35.93
2023-02-12T16:25:15.379Z,39.43
2023-02-12T16:27:52.992Z,35.30
2023-02-12T16:30:42.687Z,32.93
2023-02-12T16:33:40.222Z,41.03
2023-02-12T16:36:13.861Z,37.63
2023-02-12T16:38:48.483Z,45.90
2023-02-12T16:41:17.818Z,41.03
2023-02-12T16:43:50.757Z,37.77
2023-02-12T16:46:19.782Z,31.77
2023-02-12T16:48:49.421Z,37.80
2023-02-12T16:51:32.120Z,38.33
2023-02-12T16:54:01.097Z,33.50
2023-02-12T16:56:30.656Z,34.90
2023-02-12T16:58:58.810Z,40.43
2023-02-12T17:01:31.339Z,43.60
2023-02-12T17:04:00.120Z,35.03
2023-02-12T17:06:30.979Z,30.40
2023-02-12T17:08:58.193Z,38.97
2023-02-12T17:11:26.080Z,37.27
2023-02-12T17:13:54.446Z,33.80
2023-02-12T17:16:30.340Z,30.87
2023-02-12T17:18:57.606Z,34.17
2023-02-12T17:21:27.307Z,35.30
2023-02-12T17:23:56.337Z,34.10
2023-02-12T17:26:24.124Z,33.20
2023-02-12T17:28:50.885Z,37.20
2023-02-12T17:31:17.565Z,33.40
2023-02-12T17:33:44.377Z,36.90
2023-02-12T17:36:12.091Z,31.17
2023-02-12T17:38:38.433Z,31.33
2023-02-12T17:41:11.496Z,29.90
2023-02-12T17:43:38.051Z,35.83
2023-02-12T17:46:18.436Z,37.70
2023-02-12T17:48:44.834Z,35.30
2023-02-12T17:51:11.615Z,30.50
2023-02-12T17:53:39.212Z,33.30
2023-02-12T17:56:09.594Z,34.80
2023-02-12T17:58:36.014Z,35.33
2023-02-12T18:01:11.494Z,34.40
2023-02-12T18:03:38.320Z,37.13
2023-02-12T18:06:05.212Z,37.00
2023-02-12T18:08:31.751Z,32.30
2023-02-12T18:10:58.706Z,34.03
2023-02-12T18:13:26.917Z,38.47
2023-02-12T18:15:56.193Z,42.40
2023-02-12T18:18:22.682Z,39.70
2023-02-12T18:20:49.166Z,47.33
2023-02-12T18:23:15.559Z,51.00
2023-02-12T18:25:43.305Z,44.30
2023-02-12T18:28:10.882Z,49.33
2023-02-12T18:30:38.882Z,43.40
2023-02-12T18:33:05.803Z,48.47
2023-02-12T18:35:32.749Z,54.83
2023-02-12T18:37:59.267Z,43.63
2023-02-12T18:40:25.745Z,53.07
2023-02-12T18:42:52.398Z,54.20
2023-02-12T18:45:19.358Z,47.13
2023-02-12T18:47:45.805Z,60.77
2023-02-12T18:50:12.170Z,50.40
2023-02-12T18:52:38.541Z,57.53
2023-02-12T18:55:06.986Z,58.80
2023-02-12T18:57:33.549Z,49.10
2023-02-12T18:59:59.957Z,59.17
2023-02-12T19:02:26.414Z,53.80
2023-02-12T19:04:52.837Z,52.60
2023-02-12T19:07:19.242Z,49.90
2023-02-12T19:09:45.766Z,49.77
2023-02-12T19:12:12.183Z,47.93
2023-02-12T19:14:38.586Z,54.50
2023-02-12T19:17:04.979Z,50.63
2023-02-12T19:19:31.337Z,54.17
2023-02-12T19:21:57.788Z,51.87
2023-02-12T19:24:24.373Z,48.03
2023-02-12T19:26:53.421Z,54.90
2023-02-12T19:29:20.314Z,53.83
2023-02-12T19:31:46.898Z,54.57
2023-02-12T19:34:19.313Z,51.37
2023-02-12T19:36:46.868Z,47.43
2023-02-12T19:39:15.863Z,57.80
2023-02-12T19:41:42.567Z,49.67
2023-02-12T19:44:18.859Z,51.17
2023-02-12T19:46:47.092Z,49.50
2023-02-12T19:49:16.656Z,55.13
2023-02-12T19:51:44.229Z,51.60
2023-02-12T19:54:12.897Z,56.97
2023-02-12T19:56:39.944Z,49.33
2023-02-12T19:59:07.200Z,47.80
2023-02-12T20:01:34.446Z,48.20
2023-02-12T20:04:01.839Z,53.03
2023-02-12T20:06:31.697Z,52.60
2023-02-12T20:08:58.361Z,53.37
2023-02-12T20:11:28.647Z,56.07
2023-02-12T20:13:55.907Z,47.53
2023-02-12T20:16:25.581Z,53.73
2023-02-12T20:18:53.762Z,50.00
2023-02-12T20:21:28.178Z,46.47
2023-02-12T20:23:55.190Z,52.57
2023-02-12T20:26:22.133Z,48.50
2023-02-12T20:28:49.748Z,50.20
2023-02-12T20:31:19.083Z,49.33
2023-02-12T20:33:46.289Z,47.03
2023-02-12T20:36:13.701Z,53.17
2023-02-12T20:38:42.210Z,46.63
2023-02-12T20:41:10.102Z,48.97
2023-02-12T20:43:37.453Z,45.60
2023-02-12T20:46:14.632Z,44.13
2023-02-12T20:48:42.019Z,49.83
2023-02-12T20:51:11.369Z,50.47
2023-02-12T20:53:38.377Z,41.97
2023-02-12T20:56:07.488Z,42.00
2023-02-12T20:58:34.518Z,44.90
2023-02-12T21:01:12.838Z,44.97
2023-02-12T21:03:40.182Z,40.03
2023-02-12T21:06:07.295Z,40.77
2023-02-12T21:08:36.531Z,42.40
2023-02-12T21:11:05.988Z,41.57
2023-02-12T21:13:33.510Z,39.80
2023-02-12T21:16:05.254Z,37.07
2023-02-12T21:18:31.843Z,37.80
2023-02-12T21:21:06.754Z,42.63
2023-02-12T21:23:34.821Z,41.87
2023-02-12T21:26:10.182Z,44.10
2023-02-12T21:28:36.985Z,38.67
2023-02-12T21:31:07.910Z,42.20
2023-02-12T21:33:37.764Z,45.53
2023-02-12T21:36:09.300Z,44.80
2023-02-12T21:38:39.758Z,44.97
2023-02-12T21:41:22.870Z,40.73
2023-02-12T21:43:51.720Z,38.30
2023-02-12T21:46:20.938Z,40.13
2023-02-12T21:48:47.417Z,34.43
2023-02-12T21:51:24.221Z,43.50
2023-02-12T21:53:52.702Z,33.23
2023-02-12T21:56:20.450Z,30.90
2023-02-12T21:58:47.655Z,32.80
2023-02-12T22:01:16.812Z,40.70
2023-02-12T22:03:46.746Z,41.47
2023-02-12T22:06:15.008Z,40.63
2023-02-12T22:08:41.403Z,37.27
2023-02-12T22:11:10.155Z,35.03
2023-02-12T22:13:37.532Z,29.77
2023-02-12T22:16:14.913Z,40.97
2023-02-12T22:18:42.301Z,39.93
2023-02-12T22:21:13.100Z,38.33
2023-02-12T22:23:40.566Z,39.50
2023-02-12T22:26:21.380Z,31.63
2023-02-12T22:28:50.360Z,35.60
2023-02-12T22:31:19.921Z,30.30
2023-02-12T22:33:46.853Z,30.50
2023-02-12T22:36:13.288Z,35.40
2023-02-12T22:38:40.752Z,29.63
2023-02-12T22:41:08.716Z,30.00
2023-02-12T22:43:37.121Z,31.30
2023-02-12T22:46:04.751Z,29.53
2023-02-12T22:48:31.302Z,31.43
2023-02-12T22:50:58.494Z,25.20
2023-02-12T22:53:26.219Z,26.70
2023-02-12T22:55:52.678Z,29.53
2023-02-12T22:58:19.235Z,24.93
2023-02-12T23:00:45.697Z,26.20
2023-02-12T23:03:12.124Z,24.10
2023-02-12T23:05:38.964Z,31.30
2023-02-12T23:08:06.328Z,26.13
2023-02-12T23:10:33.176Z,33.37
2023-02-12T23:13:01.388Z,27.53
2023-02-12T23:15:27.738Z,30.57
2023-02-12T23:17:54.138Z,28.97
2023-02-12T23:20:20.669Z,29.37
2023-02-12T23:22:47.101Z,31.63
2023-02-12T23:25:13.503Z,33.27
2023-02-12T23:27:39.882Z,25.20
2023-02-12T23:30:06.956Z,28.90
2023-02-12T23:32:33.282Z,32.00
2023-02-12T23:34:59.636Z,28.13
2023-02-12T23:37:25.968Z,27.10
2023-02-12T23:39:52.373Z,24.23
2023-02-12T23:42:18.996Z,27.63
2023-02-12T23:44:45.358Z,31.27
2023-02-12T23:47:11.701Z,32.03
2023-02-12T23:49:38.723Z,30.83
2023-02-12T23:52:05.109Z,34.03
2023-02-12T23:54:31.729Z,30.00
2023-02-12T23:56:58.234Z,32.67
2023-02-12T23:59:25.568Z,29.57
